Terminal Aerodrome Forecast
Issued by NWS Cleveland, OH

Home | Current Version | Previous Version | Graphics & Text | Print | Product List | Glossary On
Versions: 1 2 3 4 5 6 7 8 9 10 11 12 13 14 15 16 17 18 19 20 21 22 23 24 25 26 27 28 29 30 31 32 33 34 35 36
000
FTUS41 KCLE 031500 AAE
TAFCLE
TAF AMD
KCLE 031511Z 0315/0418 15010KT 4SM -FZRAPL BKN050
      TEMPO 0317/0318 4SM -RAPL OVC025
     FM031800 18011KT 5SM -SHRA BR BKN018 OVC035
      TEMPO 0319/0321 2SM -RA BR OVC009
     FM040100 22015G25KT 4SM -RA BR OVC006
     FM040700 27014KT 4SM -SN OVC015
     FM041400 28014KT P6SM VCSH BKN020 OVC150=

USA.gov is the U.S. government's official web portal to all federal, state and local government web resources and services.